- বাংলা English

 * * Phone: +880 29135742, 9123838, 9141437 | FAX: +880 2 8118230, 58152019*   

TAF

TAF VGHS 211100Z 2112/2218 30006KT 3500 HZ NSC
BECMG 2120/2122 29003KT 2000 BR NSC
BECMG 2122/2124 00000KT 1200 BR SCT007
BECMG 2200/2202 00000KT 0600 FG BKN007
BECMG 2202/2204 30004KT 0900 FG BKN009
TEMPO 2123/2203 00000KT 0400 FG BKN005
BECMG 2204/2206 30006KT 1500 BR NSC
BECMG 2208/2210 32006KT 3200 HZ NSC=

TAF VGSY 211000Z 2112/2218 21005KT 3500 HZ NSC
BECMG 2118/2120 06004KT 2000 BR SCT012
BECMG 213/2201 00000KT 0500 FG BKN006
BECMG 2201/2203 00000KT 1500 BR NSC
BECMG 2203/2205 09005KT 2500 BR NSC
BECMG 2205/2207 16005KT 3500 HZ FEW018=

TAF VGEG 211100Z 2112/2218 35008KT 4000 HZ NSC
  BECMG 2118/2120 00000KT 3100 HZ NSC
  BECMG 2200/2202 00000KT 1000 MI/FG SCT007
  BECMG 2203/2205 05008KT 3200 HZ NSC
  BECMG 2208/2210 34010KT 4000 HZ NSC=

Download Full Screen